sensor_id;sensor_type;location;lat;lon;timestamp;pressure;altitude;pressure_sealevel;temperature;humidity
19676;BME280;39539;52.202;9.876;2022-07-30T00:01:04;100846.22;;;17.67;100.00
19676;BME280;39539;52.202;9.876;2022-07-30T00:03:29;100840.84;;;17.67;100.00
19676;BME280;39539;52.202;9.876;2022-07-30T00:05:55;100836.50;;;17.66;100.00
19676;BME280;39539;52.202;9.876;2022-07-30T00:08:21;100823.94;;;17.49;100.00
19676;BME280;39539;52.202;9.876;2022-07-30T00:10:47;100830.94;;;17.50;100.00
19676;BME280;39539;52.202;9.876;2022-07-30T00:13:13;100834.72;;;17.49;100.00
19676;BME280;39539;52.202;9.876;2022-07-30T00:15:38;100840.06;;;17.49;100.00
19676;BME280;39539;52.202;9.876;2022-07-30T00:18:03;100845.69;;;17.48;100.00
19676;BME280;39539;52.202;9.876;2022-07-30T00:20:29;100848.94;;;17.50;100.00
19676;BME280;39539;52.202;9.876;2022-07-30T00:22:54;100838.78;;;17.35;100.00
19676;BME280;39539;52.202;9.876;2022-07-30T00:25:20;100827.19;;;17.30;100.00
19676;BME280;39539;52.202;9.876;2022-07-30T00:27:45;100829.03;;;17.29;100.00
19676;BME280;39539;52.202;9.876;2022-07-30T00:30:11;100827.41;;;17.28;100.00
19676;BME280;39539;52.202;9.876;2022-07-30T00:32:37;100834.41;;;17.29;100.00
19676;BME280;39539;52.202;9.876;2022-07-30T00:35:03;100836.66;;;17.37;100.00
19676;BME280;39539;52.202;9.876;2022-07-30T00:37:28;100827.22;;;17.35;100.00
19676;BME280;39539;52.202;9.876;2022-07-30T00:39:54;100832.44;;;17.41;100.00
19676;BME280;39539;52.202;9.876;2022-07-30T00:42:19;100825.59;;;17.34;100.00
19676;BME280;39539;52.202;9.876;2022-07-30T00:44:51;100813.97;;;17.28;100.00
19676;BME280;39539;52.202;9.876;2022-07-30T00:47:17;100823.00;;;17.39;100.00
19676;BME280;39539;52.202;9.876;2022-07-30T00:49:42;100828.19;;;17.45;100.00
19676;BME280;39539;52.202;9.876;2022-07-30T00:52:08;100830.78;;;17.40;100.00
19676;BME280;39539;52.202;9.876;2022-07-30T00:54:33;100820.03;;;17.40;100.00
19676;BME280;39539;52.202;9.876;2022-07-30T00:56:58;100829.56;;;17.48;100.00
19676;BME280;39539;52.202;9.876;2022-07-30T00:59:24;100818.44;;;17.39;100.00
19676;BME280;39539;52.202;9.876;2022-07-30T01:01:52;100833.06;;;17.48;100.00
19676;BME280;39539;52.202;9.876;2022-07-30T01:04:17;100827.69;;;17.48;100.00
19676;BME280;39539;52.202;9.876;2022-07-30T01:06:42;100830.94;;;17.50;100.00
19676;BME280;39539;52.202;9.876;2022-07-30T01:09:08;100837.44;;;17.55;100.00
19676;BME280;39539;52.202;9.876;2022-07-30T01:11:38;100832.47;;;17.46;100.00
19676;BME280;39539;52.202;9.876;2022-07-30T01:14:06;100828.25;;;17.50;100.00
19676;BME280;39539;52.202;9.876;2022-07-30T01:16:33;100838.75;;;17.52;100.00
19676;BME280;39539;52.202;9.876;2022-07-30T01:19:01;100839.56;;;17.53;100.00
19676;BME280;39539;52.202;9.876;2022-07-30T01:21:53;100819.03;;;17.46;100.00
19676;BME280;39539;52.202;9.876;2022-07-30T01:24:34;100817.13;;;17.42;100.00
19676;BME280;39539;52.202;9.876;2022-07-30T01:27:01;100824.91;;;17.43;100.00
19676;BME280;39539;52.202;9.876;2022-07-30T01:29:27;100825.50;;;17.45;100.00
19676;BME280;39539;52.202;9.876;2022-07-30T01:31:55;100837.13;;;17.51;100.00
19676;BME280;39539;52.202;9.876;2022-07-30T01:34:26;100827.69;;;17.48;100.00
19676;BME280;39539;52.202;9.876;2022-07-30T01:36:54;100834.94;;;17.48;100.00
19676;BME280;39539;52.202;9.876;2022-07-30T01:39:21;100834.88;;;17.43;100.00
19676;BME280;39539;52.202;9.876;2022-07-30T01:41:47;100841.63;;;17.45;100.00
19676;BME280;39539;52.202;9.876;2022-07-30T01:44:15;100850.75;;;17.44;100.00
19676;BME280;39539;52.202;9.876;2022-07-30T01:46:41;100849.59;;;17.40;100.00
19676;BME280;39539;52.202;9.876;2022-07-30T01:49:07;100845.81;;;17.36;100.00
19676;BME280;39539;52.202;9.876;2022-07-30T01:51:36;100851.69;;;17.33;100.00
19676;BME280;39539;52.202;9.876;2022-07-30T01:54:06;100855.59;;;17.25;100.00
19676;BME280;39539;52.202;9.876;2022-07-30T01:56:33;100844.44;;;17.17;100.00
19676;BME280;39539;52.202;9.876;2022-07-30T01:58:59;100865.53;;;17.25;100.00
19676;BME280;39539;52.202;9.876;2022-07-30T02:01:25;100862.44;;;17.16;100.00
19676;BME280;39539;52.202;9.876;2022-07-30T02:03:51;100878.47;;;17.11;100.00
19676;BME280;39539;52.202;9.876;2022-07-30T02:06:22;100876.69;;;17.17;100.00
19676;BME280;39539;52.202;9.876;2022-07-30T02:08:55;100883.13;;;17.16;100.00
19676;BME280;39539;52.202;9.876;2022-07-30T02:11:22;100879.38;;;17.17;100.00
19676;BME280;39539;52.202;9.876;2022-07-30T02:15:02;100885.06;;;17.20;100.00
19676;BME280;39539;52.202;9.876;2022-07-30T02:17:22;100883.44;;;17.19;100.00
19676;BME280;39539;52.202;9.876;2022-07-30T02:19:50;100880.94;;;17.13;100.00
19676;BME280;39539;52.202;9.876;2022-07-30T02:22:18;100894.19;;;17.19;100.00
19676;BME280;39539;52.202;9.876;2022-07-30T02:24:47;100889.03;;;17.18;100.00
19676;BME280;39539;52.202;9.876;2022-07-30T02:27:16;100897.69;;;17.20;100.00
19676;BME280;39539;52.202;9.876;2022-07-30T02:29:43;100891.72;;;17.18;100.00
19676;BME280;39539;52.202;9.876;2022-07-30T02:32:13;100896.06;;;17.19;100.00
19676;BME280;39539;52.202;9.876;2022-07-30T02:34:40;100887.34;;;17.12;100.00
19676;BME280;39539;52.202;9.876;2022-07-30T02:37:09;100895.00;;;17.20;100.00
19676;BME280;39539;52.202;9.876;2022-07-30T02:39:37;100897.44;;;17.21;100.00
19676;BME280;39539;52.202;9.876;2022-07-30T02:42:04;100901.03;;;17.27;100.00
19676;BME280;39539;52.202;9.876;2022-07-30T02:44:30;100890.03;;;17.28;100.00
19676;BME280;39539;52.202;9.876;2022-07-30T02:46:58;100906.72;;;17.31;100.00
19676;BME280;39539;52.202;9.876;2022-07-30T02:49:25;100891.31;;;17.26;100.00
19676;BME280;39539;52.202;9.876;2022-07-30T02:51:52;100902.88;;;17.26;100.00
19676;BME280;39539;52.202;9.876;2022-07-30T02:54:19;100908.03;;;17.28;100.00
19676;BME280;39539;52.202;9.876;2022-07-30T02:56:46;100900.53;;;17.30;100.00
19676;BME280;39539;52.202;9.876;2022-07-30T02:59:15;100887.03;;;17.25;100.00
19676;BME280;39539;52.202;9.876;2022-07-30T03:01:42;100888.41;;;17.27;100.00
19676;BME280;39539;52.202;9.876;2022-07-30T03:04:09;100897.28;;;17.28;100.00
19676;BME280;39539;52.202;9.876;2022-07-30T03:06:36;100895.56;;;17.22;100.00
19676;BME280;39539;52.202;9.876;2022-07-30T03:09:02;100899.63;;;17.24;100.00
19676;BME280;39539;52.202;9.876;2022-07-30T03:11:29;100889.03;;;17.18;100.00
19676;BME280;39539;52.202;9.876;2022-07-30T03:13:56;100905.81;;;17.25;100.00
19676;BME280;39539;52.202;9.876;2022-07-30T03:16:22;100892.00;;;17.16;100.00
19676;BME280;39539;52.202;9.876;2022-07-30T03:18:49;100900.94;;;17.22;100.00
19676;BME280;39539;52.202;9.876;2022-07-30T03:21:19;100901.84;;;17.11;100.00
19676;BME280;39539;52.202;9.876;2022-07-30T03:23:47;100903.72;;;17.10;100.00
19676;BME280;39539;52.202;9.876;2022-07-30T03:26:14;100912.72;;;17.04;100.00
19676;BME280;39539;52.202;9.876;2022-07-30T03:28:45;100904.44;;;17.05;100.00
19676;BME280;39539;52.202;9.876;2022-07-30T03:31:12;100891.91;;;16.94;100.00
19676;BME280;39539;52.202;9.876;2022-07-30T03:33:39;100917.47;;;17.14;100.00
19676;BME280;39539;52.202;9.876;2022-07-30T03:36:06;100919.09;;;17.15;100.00
19676;BME280;39539;52.202;9.876;2022-07-30T03:38:35;100920.06;;;17.09;100.00
19676;BME280;39539;52.202;9.876;2022-07-30T03:41:01;100910.31;;;17.02;100.00
19676;BME280;39539;52.202;9.876;2022-07-30T03:43:28;100914.50;;;16.98;100.00
19676;BME280;39539;52.202;9.876;2022-07-30T03:45:54;100914.78;;;16.97;100.00
19676;BME280;39539;52.202;9.876;2022-07-30T03:48:20;100926.66;;;17.01;100.00
19676;BME280;39539;52.202;9.876;2022-07-30T03:50:47;100931.69;;;16.97;100.00
19676;BME280;39539;52.202;9.876;2022-07-30T03:53:13;100932.28;;;16.99;100.00
19676;BME280;39539;52.202;9.876;2022-07-30T03:55:39;100935.34;;;16.91;100.00
19676;BME280;39539;52.202;9.876;2022-07-30T03:58:05;100948.88;;;16.96;100.00
19676;BME280;39539;52.202;9.876;2022-07-30T04:00:31;100948.53;;;16.93;100.00
19676;BME280;39539;52.202;9.876;2022-07-30T04:02:56;100957.31;;;16.88;100.00
19676;BME280;39539;52.202;9.876;2022-07-30T04:05:22;100947.91;;;16.74;100.00
19676;BME280;39539;52.202;9.876;2022-07-30T04:07:47;100967.38;;;16.81;100.00
19676;BME280;39539;52.202;9.876;2022-07-30T04:10:14;100964.16;;;16.79;100.00
19676;BME280;39539;52.202;9.876;2022-07-30T04:12:39;100969.38;;;16.74;100.00
19676;BME280;39539;52.202;9.876;2022-07-30T04:15:05;100970.34;;;16.68;100.00
19676;BME280;39539;52.202;9.876;2022-07-30T04:17:38;100977.56;;;16.67;100.00
19676;BME280;39539;52.202;9.876;2022-07-30T04:20:07;100966.44;;;16.47;100.00
19676;BME280;39539;52.202;9.876;2022-07-30T04:22:36;100978.91;;;16.53;100.00
19676;BME280;39539;52.202;9.876;2022-07-30T04:25:03;100985.78;;;16.60;100.00
19676;BME280;39539;52.202;9.876;2022-07-30T04:27:30;100987.88;;;16.58;100.00
19676;BME280;39539;52.202;9.876;2022-07-30T04:29:57;100972.81;;;16.57;100.00
19676;BME280;39539;52.202;9.876;2022-07-30T04:32:22;100974.44;;;16.58;100.00
19676;BME280;39539;52.202;9.876;2022-07-30T04:34:49;100979.34;;;16.61;100.00
19676;BME280;39539;52.202;9.876;2022-07-30T04:37:20;100980.84;;;16.69;100.00
19676;BME280;39539;52.202;9.876;2022-07-30T04:39:45;100982.22;;;16.72;100.00
19676;BME280;39539;52.202;9.876;2022-07-30T04:42:14;100981.16;;;16.73;100.00
19676;BME280;39539;52.202;9.876;2022-07-30T04:44:39;100982.22;;;16.72;100.00
19676;BME280;39539;52.202;9.876;2022-07-30T04:47:05;100975.94;;;16.66;100.00
19676;BME280;39539;52.202;9.876;2022-07-30T04:49:31;100976.28;;;16.70;100.00
19676;BME280;39539;52.202;9.876;2022-07-30T04:51:57;100982.72;;;16.69;100.00
19676;BME280;39539;52.202;9.876;2022-07-30T04:54:24;100983.41;;;16.64;100.00
19676;BME280;39539;52.202;9.876;2022-07-30T04:56:51;100979.31;;;16.45;100.00
19676;BME280;39539;52.202;9.876;2022-07-30T04:59:17;100988.59;;;16.54;100.00
19676;BME280;39539;52.202;9.876;2022-07-30T05:01:45;100976.81;;;16.55;100.00
19676;BME280;39539;52.202;9.876;2022-07-30T05:04:12;100968.41;;;16.51;100.00
19676;BME280;39539;52.202;9.876;2022-07-30T05:06:39;100972.94;;;16.63;100.00
19676;BME280;39539;52.202;9.876;2022-07-30T05:09:06;100960.13;;;16.53;100.00
19676;BME280;39539;52.202;9.876;2022-07-30T05:11:32;100967.56;;;16.63;100.00
19676;BME280;39539;52.202;9.876;2022-07-30T05:13:57;100970.00;;;16.64;100.00
19676;BME280;39539;52.202;9.876;2022-07-30T05:16:23;100951.34;;;16.57;100.00
19676;BME280;39539;52.202;9.876;2022-07-30T05:18:49;100952.59;;;16.67;100.00
19676;BME280;39539;52.202;9.876;2022-07-30T05:21:14;100948.63;;;16.69;100.00
19676;BME280;39539;52.202;9.876;2022-07-30T05:23:39;100943.63;;;16.61;100.00
19676;BME280;39539;52.202;9.876;2022-07-30T05:26:05;100959.22;;;16.76;100.00
19676;BME280;39539;52.202;9.876;2022-07-30T05:28:30;100951.75;;;16.78;100.00
19676;BME280;39539;52.202;9.876;2022-07-30T05:30:55;100948.03;;;16.79;100.00
19676;BME280;39539;52.202;9.876;2022-07-30T05:33:22;100955.34;;;16.83;100.00
19676;BME280;39539;52.202;9.876;2022-07-30T05:35:47;100937.16;;;16.74;100.00
19676;BME280;39539;52.202;9.876;2022-07-30T05:38:14;100955.34;;;16.83;100.00
19676;BME280;39539;52.202;9.876;2022-07-30T05:40:39;100954.38;;;16.90;100.00
19676;BME280;39539;52.202;9.876;2022-07-30T05:43:05;100957.16;;;16.95;100.00
19676;BME280;39539;52.202;9.876;2022-07-30T05:45:30;100946.50;;;17.00;100.00
19676;BME280;39539;52.202;9.876;2022-07-30T05:47:56;100955.69;;;17.04;100.00
19676;BME280;39539;52.202;9.876;2022-07-30T05:50:22;100959.78;;;17.06;100.00
19676;BME280;39539;52.202;9.876;2022-07-30T05:52:48;100934.22;;;17.04;100.00
19676;BME280;39539;52.202;9.876;2022-07-30T05:55:13;100931.88;;;17.08;100.00
19676;BME280;39539;52.202;9.876;2022-07-30T05:57:38;100947.59;;;17.16;100.00
19676;BME280;39539;52.202;9.876;2022-07-30T06:00:07;100953.13;;;17.26;100.00
19676;BME280;39539;52.202;9.876;2022-07-30T06:02:33;100944.81;;;17.27;100.00
19676;BME280;39539;52.202;9.876;2022-07-30T06:04:58;100960.94;;;17.27;100.00
19676;BME280;39539;52.202;9.876;2022-07-30T06:07:24;100945.94;;;17.15;100.00
19676;BME280;39539;52.202;9.876;2022-07-30T06:09:49;100935.69;;;17.12;100.00
19676;BME280;39539;52.202;9.876;2022-07-30T06:12:15;100958.56;;;17.31;100.00
19676;BME280;39539;52.202;9.876;2022-07-30T06:14:40;100959.97;;;17.34;100.00
19676;BME280;39539;52.202;9.876;2022-07-30T06:17:05;100940.88;;;17.35;100.00
19676;BME280;39539;52.202;9.876;2022-07-30T06:19:31;100961.44;;;17.41;100.00
19676;BME280;39539;52.202;9.876;2022-07-30T06:21:56;100950.34;;;17.38;100.00
19676;BME280;39539;52.202;9.876;2022-07-30T06:24:21;100953.88;;;17.38;100.00
19676;BME280;39539;52.202;9.876;2022-07-30T06:26:47;100958.97;;;17.40;100.00
19676;BME280;39539;52.202;9.876;2022-07-30T06:29:12;100959.78;;;17.40;100.00
19676;BME280;39539;52.202;9.876;2022-07-30T06:31:38;100941.25;;;17.39;100.00
19676;BME280;39539;52.202;9.876;2022-07-30T06:34:05;100966.63;;;17.65;100.00
19676;BME280;39539;52.202;9.876;2022-07-30T06:36:30;100949.38;;;17.61;100.00
19676;BME280;39539;52.202;9.876;2022-07-30T06:38:56;100961.56;;;17.85;100.00
19676;BME280;39539;52.202;9.876;2022-07-30T06:41:21;100950.94;;;17.95;100.00
19676;BME280;39539;52.202;9.876;2022-07-30T06:43:47;100946.44;;;18.01;100.00
19676;BME280;39539;52.202;9.876;2022-07-30T06:46:12;100967.28;;;18.33;100.00
19676;BME280;39539;52.202;9.876;2022-07-30T06:48:41;100966.19;;;18.56;100.00
19676;BME280;39539;52.202;9.876;2022-07-30T06:51:06;100956.09;;;18.68;100.00
19676;BME280;39539;52.202;9.876;2022-07-30T06:53:31;100949.38;;;18.93;100.00
19676;BME280;39539;52.202;9.876;2022-07-30T06:55:57;100959.59;;;19.23;100.00
19676;BME280;39539;52.202;9.876;2022-07-30T06:58:22;100952.59;;;19.59;100.00
19676;BME280;39539;52.202;9.876;2022-07-30T07:00:47;100945.75;;;19.89;100.00
19676;BME280;39539;52.202;9.876;2022-07-30T07:03:13;100953.81;;;20.52;100.00
19676;BME280;39539;52.202;9.876;2022-07-30T07:05:38;100941.78;;;21.31;100.00
19676;BME280;39539;52.202;9.876;2022-07-30T07:08:04;100940.72;;;22.33;100.00
19676;BME280;39539;52.202;9.876;2022-07-30T07:10:29;100932.78;;;23.25;93.26
19676;BME280;39539;52.202;9.876;2022-07-30T07:12:54;100944.38;;;24.89;85.86
19676;BME280;39539;52.202;9.876;2022-07-30T07:15:21;100935.63;;;27.62;73.87
19676;BME280;39539;52.202;9.876;2022-07-30T07:17:46;100937.81;;;30.66;63.01
19676;BME280;39539;52.202;9.876;2022-07-30T07:20:11;100920.91;;;32.45;56.23
19676;BME280;39539;52.202;9.876;2022-07-30T07:22:37;100897.88;;;35.05;49.26
19676;BME280;39539;52.202;9.876;2022-07-30T07:25:03;100895.97;;;37.17;44.88
19676;BME280;39539;52.202;9.876;2022-07-30T07:27:29;100901.97;;;38.58;40.78
19676;BME280;39539;52.202;9.876;2022-07-30T07:29:55;100894.06;;;38.60;40.33
19676;BME280;39539;52.202;9.876;2022-07-30T07:32:20;100907.47;;;37.67;42.12
19676;BME280;39539;52.202;9.876;2022-07-30T07:34:46;100905.53;;;35.61;44.68
19676;BME280;39539;52.202;9.876;2022-07-30T07:37:11;100884.91;;;33.89;47.30
19676;BME280;39539;52.202;9.876;2022-07-30T07:39:37;100894.25;;;32.61;49.36
19676;BME280;39539;52.202;9.876;2022-07-30T07:42:02;100889.50;;;31.44;52.18
19676;BME280;39539;52.202;9.876;2022-07-30T07:44:28;100868.16;;;31.16;53.94
19676;BME280;39539;52.202;9.876;2022-07-30T07:46:53;100877.38;;;32.62;51.31
19676;BME280;39539;52.202;9.876;2022-07-30T07:49:19;100864.97;;;34.54;50.47
19676;BME280;39539;52.202;9.876;2022-07-30T07:51:44;100859.66;;;35.87;44.99
19676;BME280;39539;52.202;9.876;2022-07-30T07:54:09;100864.75;;;35.81;43.62
19676;BME280;39539;52.202;9.876;2022-07-30T07:56:35;100855.31;;;35.33;45.30
19676;BME280;39539;52.202;9.876;2022-07-30T07:59:00;100843.56;;;36.26;44.83
19676;BME280;39539;52.202;9.876;2022-07-30T08:01:25;100821.03;;;37.58;40.88
19676;BME280;39539;52.202;9.876;2022-07-30T08:03:51;100839.50;;;38.09;40.25
19676;BME280;39539;52.202;9.876;2022-07-30T08:06:16;100834.47;;;37.56;40.31
19676;BME280;39539;52.202;9.876;2022-07-30T08:08:41;100835.13;;;35.28;43.01
19676;BME280;39539;52.202;9.876;2022-07-30T08:11:07;100843.09;;;34.87;44.66
19676;BME280;39539;52.202;9.876;2022-07-30T08:13:32;100825.34;;;33.88;46.13
19676;BME280;39539;52.202;9.876;2022-07-30T08:16:00;100840.56;;;33.62;46.81
19676;BME280;39539;52.202;9.876;2022-07-30T08:18:25;100845.06;;;32.59;48.58
19676;BME280;39539;52.202;9.876;2022-07-30T08:20:51;100836.16;;;32.10;50.36
19676;BME280;39539;52.202;9.876;2022-07-30T08:23:16;100852.47;;;32.03;51.25
19676;BME280;39539;52.202;9.876;2022-07-30T08:25:43;100837.06;;;31.73;50.69
19676;BME280;39539;52.202;9.876;2022-07-30T08:28:08;100843.22;;;31.70;52.91
19676;BME280;39539;52.202;9.876;2022-07-30T08:30:34;100844.81;;;31.96;51.46
19676;BME280;39539;52.202;9.876;2022-07-30T08:32:59;100845.88;;;31.54;50.89
19676;BME280;39539;52.202;9.876;2022-07-30T08:35:25;100847.78;;;30.93;51.99
19676;BME280;39539;52.202;9.876;2022-07-30T08:37:50;100859.91;;;30.16;54.45
19676;BME280;39539;52.202;9.876;2022-07-30T08:40:18;100856.63;;;29.81;54.10
19676;BME280;39539;52.202;9.876;2022-07-30T08:42:44;100865.78;;;29.00;57.10
19676;BME280;39539;52.202;9.876;2022-07-30T08:45:11;100864.56;;;28.28;59.67
19676;BME280;39539;52.202;9.876;2022-07-30T08:47:39;100859.63;;;27.55;62.96
19676;BME280;39539;52.202;9.876;2022-07-30T08:50:06;100869.84;;;27.41;65.19
19676;BME280;39539;52.202;9.876;2022-07-30T08:52:34;100864.47;;;26.96;66.44
19676;BME280;39539;52.202;9.876;2022-07-30T08:55:00;100862.25;;;26.75;67.43
19676;BME280;39539;52.202;9.876;2022-07-30T08:57:30;100868.91;;;26.92;67.98
19676;BME280;39539;52.202;9.876;2022-07-30T08:59:57;100863.47;;;26.92;67.88
19676;BME280;39539;52.202;9.876;2022-07-30T09:02:23;100865.16;;;27.33;66.39
19676;BME280;39539;52.202;9.876;2022-07-30T09:04:48;100848.72;;;27.72;65.52
19676;BME280;39539;52.202;9.876;2022-07-30T09:07:14;100866.19;;;28.29;64.78
19676;BME280;39539;52.202;9.876;2022-07-30T09:09:39;100860.06;;;28.67;61.50
19676;BME280;39539;52.202;9.876;2022-07-30T09:12:31;100866.44;;;29.44;60.07
19676;BME280;39539;52.202;9.876;2022-07-30T09:20:13;100857.16;;;31.90;54.41
19676;BME280;39539;52.202;9.876;2022-07-30T09:22:42;100853.50;;;34.13;50.00
19676;BME280;39539;52.202;9.876;2022-07-30T09:25:08;100848.47;;;36.06;43.37
19676;BME280;39539;52.202;9.876;2022-07-30T09:27:44;100844.78;;;37.59;41.46
19676;BME280;39539;52.202;9.876;2022-07-30T09:30:12;100846.91;;;37.80;40.92
19676;BME280;39539;52.202;9.876;2022-07-30T09:32:49;100838.13;;;39.01;39.39
19676;BME280;39539;52.202;9.876;2022-07-30T09:35:15;100857.56;;;40.53;35.91
19676;BME280;39539;52.202;9.876;2022-07-30T09:37:42;100861.03;;;41.24;35.71
19676;BME280;39539;52.202;9.876;2022-07-30T09:40:15;100862.91;;;40.23;36.89
19676;BME280;39539;52.202;9.876;2022-07-30T09:42:41;100856.78;;;41.09;34.82
19676;BME280;39539;52.202;9.876;2022-07-30T09:45:12;100870.81;;;42.15;33.87
19676;BME280;39539;52.202;9.876;2022-07-30T09:47:42;100854.22;;;42.31;33.56
19676;BME280;39539;52.202;9.876;2022-07-30T09:50:13;100868.34;;;42.21;31.62
19676;BME280;39539;52.202;9.876;2022-07-30T09:52:42;100861.16;;;42.77;32.55
19676;BME280;39539;52.202;9.876;2022-07-30T09:55:09;100866.28;;;43.06;31.59
19676;BME280;39539;52.202;9.876;2022-07-30T09:57:58;100852.38;;;43.46;31.73
19676;BME280;39539;52.202;9.876;2022-07-30T10:00:25;100852.63;;;43.55;30.11
19676;BME280;39539;52.202;9.876;2022-07-30T10:02:52;100869.22;;;43.86;31.16
19676;BME280;39539;52.202;9.876;2022-07-30T10:05:18;100854.91;;;43.40;30.21
19676;BME280;39539;52.202;9.876;2022-07-30T10:07:48;100859.19;;;43.45;30.21
19676;BME280;39539;52.202;9.876;2022-07-30T10:10:16;100857.63;;;42.97;29.27
19676;BME280;39539;52.202;9.876;2022-07-30T10:12:43;100854.88;;;42.43;30.40
19676;BME280;39539;52.202;9.876;2022-07-30T10:15:10;100844.00;;;42.21;31.51
19676;BME280;39539;52.202;9.876;2022-07-30T10:17:35;100843.50;;;41.65;30.65
19676;BME280;39539;52.202;9.876;2022-07-30T10:20:06;100851.75;;;42.06;31.12
19676;BME280;39539;52.202;9.876;2022-07-30T10:22:33;100864.28;;;42.56;31.83
19676;BME280;39539;52.202;9.876;2022-07-30T10:25:01;100857.16;;;42.51;31.89
19676;BME280;39539;52.202;9.876;2022-07-30T10:27:26;100860.53;;;42.39;31.36
19676;BME280;39539;52.202;9.876;2022-07-30T10:29:52;100858.78;;;41.87;31.60
19676;BME280;39539;52.202;9.876;2022-07-30T10:32:19;100862.72;;;41.93;32.71
19676;BME280;39539;52.202;9.876;2022-07-30T10:34:45;100871.75;;;40.80;33.45
19676;BME280;39539;52.202;9.876;2022-07-30T10:37:12;100868.34;;;41.52;33.02
19676;BME280;39539;52.202;9.876;2022-07-30T10:39:58;100864.66;;;40.69;34.23
19676;BME280;39539;52.202;9.876;2022-07-30T10:45:15;100881.06;;;36.91;37.50
19676;BME280;39539;52.202;9.876;2022-07-30T10:47:43;100872.50;;;35.98;39.24
19676;BME280;39539;52.202;9.876;2022-07-30T10:50:10;100874.94;;;34.58;40.43
19676;BME280;39539;52.202;9.876;2022-07-30T10:52:56;100871.31;;;33.48;44.74
19676;BME280;39539;52.202;9.876;2022-07-30T10:55:25;100864.31;;;33.35;44.72
19676;BME280;39539;52.202;9.876;2022-07-30T11:00:26;100854.28;;;32.51;46.42
19676;BME280;39539;52.202;9.876;2022-07-30T11:05:35;100852.25;;;32.36;47.38
19676;BME280;39539;52.202;9.876;2022-07-30T11:08:30;100866.59;;;31.76;45.71
19676;BME280;39539;52.202;9.876;2022-07-30T11:10:56;100857.59;;;30.81;47.17
19676;BME280;39539;52.202;9.876;2022-07-30T11:13:50;100864.59;;;30.58;47.50
19676;BME280;39539;52.202;9.876;2022-07-30T11:16:16;100854.22;;;30.42;46.76
19676;BME280;39539;52.202;9.876;2022-07-30T11:21:29;100871.53;;;29.92;50.53
19676;BME280;39539;52.202;9.876;2022-07-30T11:23:56;100863.81;;;29.56;50.92
19676;BME280;39539;52.202;9.876;2022-07-30T11:29:04;100861.81;;;28.88;56.06
19676;BME280;39539;52.202;9.876;2022-07-30T11:31:35;100872.28;;;28.78;54.99
19676;BME280;39539;52.202;9.876;2022-07-30T11:37:11;100868.31;;;29.90;54.62
19676;BME280;39539;52.202;9.876;2022-07-30T11:47:42;100860.94;;;30.66;48.79
19676;BME280;39539;52.202;9.876;2022-07-30T11:50:19;100854.31;;;30.67;50.27
19676;BME280;39539;52.202;9.876;2022-07-30T11:53:01;100856.69;;;31.02;49.31
19676;BME280;39539;52.202;9.876;2022-07-30T11:55:30;100848.03;;;31.00;48.38
19676;BME280;39539;52.202;9.876;2022-07-30T11:57:58;100853.50;;;31.00;49.52
19676;BME280;39539;52.202;9.876;2022-07-30T12:00:24;100843.66;;;30.99;49.00
19676;BME280;39539;52.202;9.876;2022-07-30T12:02:50;100854.09;;;30.72;49.70
19676;BME280;39539;52.202;9.876;2022-07-30T12:05:23;100846.19;;;30.37;48.64
19676;BME280;39539;52.202;9.876;2022-07-30T12:07:50;100858.41;;;30.61;49.27
19676;BME280;39539;52.202;9.876;2022-07-30T12:10:17;100848.53;;;30.48;47.91
19676;BME280;39539;52.202;9.876;2022-07-30T12:12:44;100854.72;;;30.57;49.19
19676;BME280;39539;52.202;9.876;2022-07-30T12:15:10;100853.34;;;30.51;46.83
19676;BME280;39539;52.202;9.876;2022-07-30T12:17:51;100838.09;;;30.20;48.13
19676;BME280;39539;52.202;9.876;2022-07-30T12:20:18;100852.94;;;30.19;49.34
19676;BME280;39539;52.202;9.876;2022-07-30T12:22:45;100840.63;;;29.83;49.87
19676;BME280;39539;52.202;9.876;2022-07-30T12:25:12;100846.66;;;29.76;49.91
19676;BME280;39539;52.202;9.876;2022-07-30T12:27:37;100842.44;;;29.79;49.28
19676;BME280;39539;52.202;9.876;2022-07-30T12:30:04;100853.28;;;29.75;47.60
19676;BME280;39539;52.202;9.876;2022-07-30T12:32:30;100830.94;;;29.56;47.23
19676;BME280;39539;52.202;9.876;2022-07-30T12:34:57;100831.19;;;29.42;47.71
19676;BME280;39539;52.202;9.876;2022-07-30T12:37:23;100831.75;;;29.57;49.71
19676;BME280;39539;52.202;9.876;2022-07-30T12:39:49;100822.78;;;29.47;47.44
19676;BME280;39539;52.202;9.876;2022-07-30T12:42:18;100831.44;;;29.49;49.30
19676;BME280;39539;52.202;9.876;2022-07-30T12:44:44;100840.38;;;29.76;47.51
19676;BME280;39539;52.202;9.876;2022-07-30T12:47:24;100846.91;;;29.84;49.03
19676;BME280;39539;52.202;9.876;2022-07-30T12:49:51;100849.19;;;30.03;47.18
19676;BME280;39539;52.202;9.876;2022-07-30T12:52:31;100838.22;;;30.03;49.79
19676;BME280;39539;52.202;9.876;2022-07-30T12:57:22;100847.53;;;29.60;49.99
19676;BME280;39539;52.202;9.876;2022-07-30T12:59:59;100845.72;;;29.72;50.26
19676;BME280;39539;52.202;9.876;2022-07-30T13:02:33;100828.13;;;29.73;51.62
19676;BME280;39539;52.202;9.876;2022-07-30T13:04:58;100836.69;;;30.14;51.30
19676;BME280;39539;52.202;9.876;2022-07-30T13:07:24;100832.34;;;30.34;49.82
19676;BME280;39539;52.202;9.876;2022-07-30T13:10:12;100830.72;;;30.12;48.65
19676;BME280;39539;52.202;9.876;2022-07-30T13:12:37;100830.63;;;30.29;49.00
19676;BME280;39539;52.202;9.876;2022-07-30T13:15:04;100825.19;;;30.20;49.96
19676;BME280;39539;52.202;9.876;2022-07-30T13:17:29;100823.94;;;30.18;50.06
19676;BME280;39539;52.202;9.876;2022-07-30T13:19:55;100827.94;;;30.20;49.38